DAL333 KJFK-EGLL
Flight info
| Callsign | DAL333 |
|---|---|
| Flight time | N/A |
| Altitude | 39000 |
| Route | MERIT DCT HFD DCT PUT DCT WITCH DCT ALLEX N535B UMESI/M084F400 DCT 5130N05000W 5330N04000W 5430N03000W 5430N02000W DCT NEBIN DCT OLGON/N0489F410 DCT ENJEX DCT AVZAC DCT INFEC DCT JETZI DCT AMFUL DCT ORZEB/N0451F230 P2 SIRIC |
| Aircraft | A359/H-SDE2E3GHIJ3J4J5LM1ORWXY/LB1D1 |
Departure
| Time | 2026-05-08 06:13 |
|---|---|
| Airport | John F. Kennedy International Airport (KJFK) |
Arrival
| Time | N/A |
|---|---|
| Airport | London Heathrow Airport (EGLL) |
| Time | Latitude | Longitude | Altitude | Speed | Heading |
|---|---|---|---|---|---|
| 2026-05-08 05:45 | 40.63983 | -73.78248 | 27 ft | 0 kts | 62° |
| 2026-05-08 06:03 | 40.63982 | -73.78250 | 27 ft | 0 kts | 62° |
| 2026-05-08 06:03 | 40.63978 | -73.78262 | 25 ft | 2 kts | 62° |
| 2026-05-08 06:03 | 40.63970 | -73.78281 | 24 ft | 2 kts | 62° |
| 2026-05-08 06:03 | 40.63962 | -73.78300 | 25 ft | 2 kts | 61° |
| 2026-05-08 06:04 | 40.63954 | -73.78319 | 25 ft | 2 kts | 66° |
| 2026-05-08 06:04 | 40.63953 | -73.78339 | 27 ft | 2 kts | 136° |
| 2026-05-08 06:04 | 40.63964 | -73.78349 | 24 ft | 1 kts | 151° |
| 2026-05-08 06:04 | 40.63966 | -73.78351 | 24 ft | 0 kts | 152° |
| 2026-05-08 06:09 | 40.63964 | -73.78349 | 27 ft | 2 kts | 150° |
| 2026-05-08 06:09 | 40.63936 | -73.78327 | 27 ft | 7 kts | 149° |
| 2026-05-08 06:09 | 40.63884 | -73.78300 | 27 ft | 9 kts | 167° |
| 2026-05-08 06:09 | 40.63810 | -73.78285 | 27 ft | 12 kts | 173° |
| 2026-05-08 06:10 | 40.63716 | -73.78269 | 27 ft | 15 kts | 173° |
| 2026-05-08 06:10 | 40.63615 | -73.78254 | 27 ft | 13 kts | 179° |
| 2026-05-08 06:10 | 40.63521 | -73.78296 | 27 ft | 15 kts | 209° |
| 2026-05-08 06:10 | 40.63444 | -73.78309 | 28 ft | 7 kts | 136° |
| 2026-05-08 06:11 | 40.63412 | -73.78248 | 28 ft | 9 kts | 120° |
| 2026-05-08 06:11 | 40.63376 | -73.78163 | 28 ft | 12 kts | 120° |
| 2026-05-08 06:11 | 40.63335 | -73.78053 | 28 ft | 15 kts | 112° |
| 2026-05-08 06:11 | 40.63303 | -73.77994 | 28 ft | 5 kts | 161° |
| 2026-05-08 06:12 | 40.63269 | -73.77996 | 29 ft | 5 kts | 188° |
| 2026-05-08 06:12 | 40.63232 | -73.78016 | 30 ft | 6 kts | 218° |
| 2026-05-08 06:12 | 40.63214 | -73.78075 | 29 ft | 9 kts | 275° |
| 2026-05-08 06:12 | 40.63222 | -73.78103 | 27 ft | 0 kts | 297° |
| 2026-05-08 06:13 | 40.63288 | -73.78256 | 27 ft | 56 kts | 301° |
| 2026-05-08 06:13 | 40.63612 | -73.78970 | 30 ft | 124 kts | 301° |
| 2026-05-08 06:13 | 40.64161 | -73.80174 | 53 ft | 178 kts | 303° |
| 2026-05-08 06:13 | 40.64805 | -73.81577 | 801 ft | 175 kts | 301° |
| 2026-05-08 06:14 | 40.65234 | -73.83023 | 1711 ft | 174 kts | 281° |
| 2026-05-08 06:14 | 40.64925 | -73.84631 | 2113 ft | 201 kts | 235° |
| 2026-05-08 06:14 | 40.63726 | -73.85701 | 2689 ft | 215 kts | 204° |
| 2026-05-08 06:14 | 40.62377 | -73.86560 | 3533 ft | 215 kts | 212° |
| 2026-05-08 06:15 | 40.61115 | -73.87604 | 4397 ft | 214 kts | 212° |
| 2026-05-08 06:15 | 40.59718 | -73.88307 | 5198 ft | 219 kts | 193° |
| 2026-05-08 06:15 | 40.58153 | -73.88231 | 5797 ft | 239 kts | 168° |
| 2026-05-08 06:15 | 40.56523 | -73.87385 | 6222 ft | 264 kts | 158° |
| 2026-05-08 06:16 | 40.54826 | -73.86330 | 6882 ft | 274 kts | 159° |
| 2026-05-08 06:16 | 40.52997 | -73.85618 | 7687 ft | 276 kts | 175° |
| 2026-05-08 06:16 | 40.51109 | -73.84994 | 8544 ft | 287 kts | 161° |
| 2026-05-08 06:16 | 40.49404 | -73.83533 | 9428 ft | 299 kts | 142° |
| 2026-05-08 06:17 | 40.47025 | -73.78855 | 10656 ft | 336 kts | 102° |
| 2026-05-08 06:17 | 40.47085 | -73.75721 | 11013 ft | 356 kts | 73° |
| 2026-05-08 06:17 | 40.48205 | -73.72779 | 11398 ft | 367 kts | 47° |
| 2026-05-08 06:18 | 40.50172 | -73.70675 | 12022 ft | 366 kts | 22° |
| 2026-05-08 06:18 | 40.52522 | -73.69419 | 12802 ft | 366 kts | 13° |
| 2026-05-08 06:18 | 40.54975 | -73.68429 | 13588 ft | 371 kts | 11° |
| 2026-05-08 06:18 | 40.57458 | -73.67381 | 14249 ft | 380 kts | 13° |
| 2026-05-08 06:19 | 40.59959 | -73.66149 | 14865 ft | 390 kts | 16° |
| 2026-05-08 06:19 | 40.62475 | -73.64717 | 15519 ft | 399 kts | 18° |
| 2026-05-08 06:19 | 40.65024 | -73.63129 | 16004 ft | 412 kts | 19° |
| 2026-05-08 06:19 | 40.67616 | -73.61420 | 16630 ft | 420 kts | 20° |
| 2026-05-08 06:20 | 40.70239 | -73.59648 | 17259 ft | 428 kts | 20° |
| 2026-05-08 06:20 | 40.72912 | -73.57831 | 17891 ft | 436 kts | 20° |
| 2026-05-08 06:20 | 40.75635 | -73.55986 | 18477 ft | 444 kts | 20° |
| 2026-05-08 06:20 | 40.78402 | -73.54120 | 19072 ft | 450 kts | 20° |
| 2026-05-08 06:21 | 40.81209 | -73.52233 | 19805 ft | 453 kts | 19° |
| 2026-05-08 06:21 | 40.84027 | -73.50342 | 20498 ft | 458 kts | 19° |
| 2026-05-08 06:21 | 40.86886 | -73.48429 | 21048 ft | 465 kts | 19° |
| 2026-05-08 06:21 | 40.89792 | -73.46487 | 21604 ft | 472 kts | 19° |
| 2026-05-08 06:22 | 40.92747 | -73.44509 | 22178 ft | 479 kts | 19° |
| 2026-05-08 06:22 | 40.95737 | -73.42505 | 22745 ft | 485 kts | 19° |
| 2026-05-08 06:22 | 40.98771 | -73.40468 | 23351 ft | 492 kts | 19° |
| 2026-05-08 06:22 | 41.01840 | -73.38405 | 23844 ft | 498 kts | 19° |
| 2026-05-08 06:23 | 41.04934 | -73.36318 | 24439 ft | 500 kts | 19° |
| 2026-05-08 06:23 | 41.08043 | -73.34218 | 25027 ft | 503 kts | 18° |
| 2026-05-08 06:23 | 41.11165 | -73.32106 | 25604 ft | 505 kts | 18° |
| 2026-05-08 06:23 | 41.14264 | -73.30010 | 26131 ft | 508 kts | 18° |
| 2026-05-08 06:24 | 41.17431 | -73.27873 | 26627 ft | 513 kts | 18° |
| 2026-05-08 06:24 | 41.20621 | -73.25717 | 27172 ft | 518 kts | 18° |
| 2026-05-08 06:24 | 41.23831 | -73.23542 | 27721 ft | 521 kts | 18° |
| 2026-05-08 06:24 | 41.27060 | -73.21349 | 28277 ft | 523 kts | 18° |
| 2026-05-08 06:25 | 41.30301 | -73.19145 | 28829 ft | 526 kts | 18° |
| 2026-05-08 06:25 | 41.33555 | -73.16859 | 29337 ft | 534 kts | 22° |
| 2026-05-08 06:25 | 41.36653 | -73.14001 | 29885 ft | 549 kts | 33° |
| 2026-05-08 06:25 | 41.39392 | -73.10390 | 30333 ft | 561 kts | 45° |
| 2026-05-08 06:26 | 41.41003 | -73.07674 | 30589 ft | 566 kts | 50° |
| 2026-05-08 06:26 | 41.43199 | -73.03299 | 30976 ft | 571 kts | 55° |
| 2026-05-08 06:26 | 41.45227 | -72.98722 | 31340 ft | 575 kts | 58° |
| 2026-05-08 06:26 | 41.47183 | -72.94062 | 31657 ft | 577 kts | 59° |
| 2026-05-08 06:27 | 41.49809 | -72.87756 | 31955 ft | 584 kts | 59° |
| 2026-05-08 06:27 | 41.51127 | -72.84631 | 32172 ft | 586 kts | 58° |
| 2026-05-08 06:27 | 41.53146 | -72.79902 | 32539 ft | 587 kts | 58° |
| 2026-05-08 06:27 | 41.55185 | -72.75190 | 32983 ft | 586 kts | 58° |
| 2026-05-08 06:28 | 41.57233 | -72.70493 | 33498 ft | 584 kts | 58° |
| 2026-05-08 06:28 | 41.59278 | -72.65820 | 33977 ft | 582 kts | 58° |
| 2026-05-08 06:28 | 41.61315 | -72.61167 | 34325 ft | 581 kts | 58° |
| 2026-05-08 06:28 | 41.63360 | -72.56486 | 34549 ft | 583 kts | 58° |
| 2026-05-08 06:29 | 41.65404 | -72.51815 | 34790 ft | 585 kts | 57° |
| 2026-05-08 06:29 | 41.67490 | -72.47144 | 35183 ft | 584 kts | 57° |
| 2026-05-08 06:29 | 41.69592 | -72.42502 | 35541 ft | 583 kts | 57° |
| 2026-05-08 06:29 | 41.71693 | -72.37876 | 35838 ft | 583 kts | 57° |
| 2026-05-08 06:30 | 41.73803 | -72.33223 | 36141 ft | 583 kts | 57° |
| 2026-05-08 06:30 | 41.75897 | -72.28584 | 36425 ft | 583 kts | 57° |
| 2026-05-08 06:30 | 41.77990 | -72.23929 | 36670 ft | 583 kts | 57° |
| 2026-05-08 06:30 | 41.80080 | -72.19262 | 36925 ft | 584 kts | 57° |
| 2026-05-08 06:31 | 41.82164 | -72.14596 | 37273 ft | 584 kts | 57° |
| 2026-05-08 06:31 | 41.84251 | -72.09914 | 37576 ft | 583 kts | 57° |
| 2026-05-08 06:31 | 41.86326 | -72.05248 | 37831 ft | 583 kts | 57° |
| 2026-05-08 06:31 | 41.88397 | -72.00586 | 38103 ft | 583 kts | 57° |
| 2026-05-08 06:32 | 41.90472 | -71.95909 | 38365 ft | 583 kts | 57° |
| 2026-05-08 06:32 | 41.92545 | -71.91231 | 38588 ft | 583 kts | 57° |
| 2026-05-08 06:32 | 41.94683 | -71.86629 | 38734 ft | 580 kts | 52° |
| 2026-05-08 06:32 | 41.97235 | -71.82463 | 39012 ft | 574 kts | 43° |
| 2026-05-08 06:33 | 41.99990 | -71.78601 | 39269 ft | 571 kts | 41° |
| 2026-05-08 06:33 | 42.02796 | -71.74836 | 39466 ft | 569 kts | 40° |
| 2026-05-08 06:33 | 42.05629 | -71.71125 | 39649 ft | 568 kts | 40° |
| 2026-05-08 06:33 | 42.08469 | -71.67441 | 39828 ft | 567 kts | 40° |
| 2026-05-08 06:34 | 42.11312 | -71.63755 | 40003 ft | 567 kts | 40° |
| 2026-05-08 06:34 | 42.14148 | -71.60065 | 40188 ft | 566 kts | 40° |
| 2026-05-08 06:34 | 42.16973 | -71.56371 | 40410 ft | 564 kts | 40° |
| 2026-05-08 06:34 | 42.19776 | -71.52690 | 40572 ft | 563 kts | 41° |
| 2026-05-08 06:35 | 42.22548 | -71.49038 | 40710 ft | 563 kts | 41° |
| 2026-05-08 06:35 | 42.25343 | -71.45348 | 40834 ft | 563 kts | 41° |
| 2026-05-08 06:35 | 42.30939 | -71.37942 | 40872 ft | 563 kts | 41° |
| 2026-05-08 06:36 | 42.36519 | -71.30540 | 40843 ft | 561 kts | 41° |
| 2026-05-08 06:36 | 42.42083 | -71.23142 | 40859 ft | 561 kts | 41° |
| 2026-05-08 06:37 | 42.47650 | -71.15719 | 40870 ft | 561 kts | 41° |
| 2026-05-08 06:37 | 42.53198 | -71.08304 | 40845 ft | 561 kts | 41° |
| 2026-05-08 06:38 | 42.58747 | -71.00867 | 40844 ft | 560 kts | 41° |
| 2026-05-08 06:38 | 42.64285 | -70.93425 | 40848 ft | 560 kts | 41° |
| 2026-05-08 06:39 | 42.69430 | -70.85457 | 40829 ft | 563 kts | 54° |
| 2026-05-08 06:39 | 42.73809 | -70.76613 | 40840 ft | 564 kts | 56° |
| 2026-05-08 06:40 | 42.78054 | -70.67629 | 40852 ft | 565 kts | 56° |
| 2026-05-08 06:40 | 42.82278 | -70.58622 | 40838 ft | 564 kts | 56° |
| 2026-05-08 06:41 | 42.86511 | -70.49618 | 40829 ft | 564 kts | 57° |
| 2026-05-08 06:41 | 42.90748 | -70.40606 | 40835 ft | 564 kts | 57° |
| 2026-05-08 06:42 | 42.94977 | -70.31588 | 40834 ft | 563 kts | 57° |
| 2026-05-08 06:42 | 42.99190 | -70.22574 | 40840 ft | 563 kts | 57° |
| 2026-05-08 06:43 | 43.03395 | -70.13549 | 40835 ft | 564 kts | 57° |
| 2026-05-08 06:43 | 43.07605 | -70.04486 | 40835 ft | 565 kts | 57° |
| 2026-05-08 06:44 | 43.11807 | -69.95408 | 40834 ft | 565 kts | 57° |
| 2026-05-08 06:44 | 43.15978 | -69.86373 | 40823 ft | 565 kts | 57° |
| 2026-05-08 06:45 | 43.20170 | -69.77265 | 40837 ft | 566 kts | 57° |
| 2026-05-08 06:45 | 43.24356 | -69.68140 | 40831 ft | 565 kts | 58° |
| 2026-05-08 06:46 | 43.28533 | -69.59007 | 40829 ft | 565 kts | 58° |
| 2026-05-08 06:46 | 43.32710 | -69.49847 | 40836 ft | 565 kts | 58° |
| 2026-05-08 06:47 | 43.36873 | -69.40687 | 40824 ft | 565 kts | 58° |
| 2026-05-08 06:47 | 43.41030 | -69.31512 | 40786 ft | 565 kts | 58° |
| 2026-05-08 06:48 | 43.45186 | -69.22310 | 40821 ft | 567 kts | 58° |
| 2026-05-08 06:48 | 43.49336 | -69.13092 | 40818 ft | 567 kts | 58° |
| 2026-05-08 06:49 | 43.53479 | -69.03861 | 40814 ft | 567 kts | 58° |
| 2026-05-08 06:49 | 43.57622 | -68.94602 | 40807 ft | 567 kts | 58° |
| 2026-05-08 06:50 | 43.61749 | -68.85347 | 40810 ft | 566 kts | 59° |
| 2026-05-08 06:50 | 43.65863 | -68.76092 | 40804 ft | 566 kts | 59° |
| 2026-05-08 06:51 | 43.69976 | -68.66809 | 40798 ft | 566 kts | 59° |
| 2026-05-08 06:51 | 43.74084 | -68.57510 | 40806 ft | 567 kts | 59° |
| 2026-05-08 06:52 | 43.78180 | -68.48208 | 40798 ft | 566 kts | 59° |
| 2026-05-08 06:52 | 43.82243 | -68.38951 | 40796 ft | 566 kts | 59° |
| 2026-05-08 06:53 | 43.86324 | -68.29622 | 40790 ft | 566 kts | 59° |
| 2026-05-08 06:53 | 43.90394 | -68.20290 | 40788 ft | 566 kts | 59° |
| 2026-05-08 06:54 | 43.94454 | -68.10950 | 40763 ft | 566 kts | 60° |
| 2026-05-08 06:54 | 43.98516 | -68.01575 | 40785 ft | 567 kts | 60° |
| 2026-05-08 06:55 | 44.02580 | -67.92163 | 40786 ft | 567 kts | 60° |
| 2026-05-08 06:55 | 44.06629 | -67.82756 | 40777 ft | 567 kts | 60° |
| 2026-05-08 06:56 | 44.10670 | -67.73338 | 40777 ft | 567 kts | 60° |
| 2026-05-08 06:56 | 44.14708 | -67.63894 | 40783 ft | 567 kts | 60° |
| 2026-05-08 06:57 | 44.18734 | -67.54449 | 40768 ft | 567 kts | 60° |
| 2026-05-08 06:57 | 44.22752 | -67.44992 | 40767 ft | 568 kts | 60° |
| 2026-05-08 06:58 | 44.26769 | -67.35502 | 40768 ft | 569 kts | 60° |
| 2026-05-08 06:58 | 44.30758 | -67.26051 | 40763 ft | 569 kts | 61° |
| 2026-05-08 06:59 | 44.34789 | -67.16467 | 40760 ft | 568 kts | 61° |
| 2026-05-08 06:59 | 44.38787 | -67.06931 | 40757 ft | 568 kts | 61° |
| 2026-05-08 07:00 | 44.43085 | -66.97675 | 40761 ft | 569 kts | 53° |
| 2026-05-08 07:00 | 44.47948 | -66.88920 | 40755 ft | 569 kts | 52° |
| 2026-05-08 07:01 | 44.52886 | -66.80262 | 40743 ft | 570 kts | 51° |
| 2026-05-08 07:01 | 44.57817 | -66.71612 | 40742 ft | 571 kts | 52° |
| 2026-05-08 07:02 | 44.62757 | -66.62887 | 40754 ft | 571 kts | 52° |
| 2026-05-08 07:02 | 44.67681 | -66.54143 | 40746 ft | 571 kts | 52° |
| 2026-05-08 07:03 | 44.72601 | -66.45377 | 40750 ft | 571 kts | 52° |
| 2026-05-08 07:03 | 44.77522 | -66.36585 | 40750 ft | 571 kts | 52° |
| 2026-05-08 07:04 | 44.82429 | -66.27790 | 40740 ft | 571 kts | 52° |
| 2026-05-08 07:04 | 44.87332 | -66.18978 | 40731 ft | 571 kts | 52° |
| 2026-05-08 07:05 | 44.92232 | -66.10142 | 40730 ft | 571 kts | 52° |
| 2026-05-08 07:05 | 44.97119 | -66.01303 | 40727 ft | 571 kts | 52° |
| 2026-05-08 07:06 | 45.02003 | -65.92440 | 40730 ft | 571 kts | 53° |
| 2026-05-08 07:06 | 45.06877 | -65.83570 | 40721 ft | 571 kts | 53° |
| 2026-05-08 07:07 | 45.11745 | -65.74683 | 40722 ft | 571 kts | 53° |
| 2026-05-08 07:07 | 45.16601 | -65.65790 | 40728 ft | 571 kts | 53° |
| 2026-05-08 07:08 | 45.21456 | -65.56871 | 40730 ft | 571 kts | 53° |
| 2026-05-08 07:08 | 45.26300 | -65.47942 | 40729 ft | 571 kts | 53° |
| 2026-05-08 07:09 | 45.31142 | -65.38992 | 40722 ft | 571 kts | 53° |
| 2026-05-08 07:09 | 45.35973 | -65.30031 | 40722 ft | 571 kts | 53° |
| 2026-05-08 07:10 | 45.40804 | -65.21043 | 40679 ft | 571 kts | 53° |
| 2026-05-08 07:10 | 45.45588 | -65.12115 | 40725 ft | 572 kts | 53° |
| 2026-05-08 07:11 | 45.50415 | -65.03077 | 40716 ft | 572 kts | 53° |
| 2026-05-08 07:11 | 45.55229 | -64.94036 | 40716 ft | 572 kts | 54° |
| 2026-05-08 07:12 | 45.60037 | -64.84976 | 40722 ft | 572 kts | 54° |
| 2026-05-08 07:12 | 45.64833 | -64.75911 | 40713 ft | 572 kts | 54° |
| 2026-05-08 07:13 | 45.69625 | -64.66823 | 40708 ft | 572 kts | 54° |
| 2026-05-08 07:13 | 45.73601 | -64.59260 | 40708 ft | 572 kts | 54° |
| 2026-05-08 07:14 | 45.78382 | -64.50140 | 40700 ft | 572 kts | 54° |
| 2026-05-08 07:14 | 45.83146 | -64.41024 | 40694 ft | 571 kts | 54° |
| 2026-05-08 07:15 | 45.87901 | -64.31894 | 40677 ft | 572 kts | 54° |
| 2026-05-08 07:15 | 45.92663 | -64.22718 | 40688 ft | 573 kts | 54° |
| 2026-05-08 07:16 | 45.97419 | -64.13528 | 40688 ft | 573 kts | 54° |
| 2026-05-08 07:16 | 46.02168 | -64.04323 | 40685 ft | 573 kts | 54° |
| 2026-05-08 07:17 | 46.06912 | -63.95095 | 40683 ft | 573 kts | 55° |
| 2026-05-08 07:17 | 46.11649 | -63.85850 | 40686 ft | 574 kts | 55° |
| 2026-05-08 07:18 | 46.16383 | -63.76580 | 40685 ft | 574 kts | 55° |
| 2026-05-08 07:18 | 46.21107 | -63.67299 | 40687 ft | 574 kts | 55° |
| 2026-05-08 07:19 | 46.25829 | -63.57993 | 40686 ft | 574 kts | 55° |
| 2026-05-08 07:19 | 46.30536 | -63.48683 | 40681 ft | 574 kts | 55° |
| 2026-05-08 07:20 | 46.35209 | -63.39410 | 40682 ft | 575 kts | 55° |
| 2026-05-08 07:20 | 46.39914 | -63.30043 | 40675 ft | 575 kts | 56° |
| 2026-05-08 07:21 | 46.44610 | -63.20664 | 40684 ft | 575 kts | 56° |
| 2026-05-08 07:21 | 46.49298 | -63.11269 | 40687 ft | 575 kts | 56° |
| 2026-05-08 07:22 | 46.53981 | -63.01851 | 40684 ft | 576 kts | 56° |
| 2026-05-08 07:22 | 46.58662 | -62.92405 | 40682 ft | 576 kts | 56° |
| 2026-05-08 07:23 | 46.63331 | -62.82952 | 40682 ft | 576 kts | 56° |
| 2026-05-08 07:23 | 46.67995 | -62.73476 | 40691 ft | 576 kts | 56° |
| 2026-05-08 07:24 | 46.72654 | -62.63979 | 40691 ft | 576 kts | 56° |
| 2026-05-08 07:24 | 46.77305 | -62.54466 | 40638 ft | 576 kts | 56° |
| 2026-05-08 07:25 | 46.81949 | -62.44935 | 40689 ft | 576 kts | 56° |
| 2026-05-08 07:26 | 46.88896 | -62.30614 | 40696 ft | 576 kts | 57° |
| 2026-05-08 07:26 | 46.93514 | -62.21054 | 40694 ft | 576 kts | 57° |
| 2026-05-08 07:27 | 46.98130 | -62.11466 | 40694 ft | 576 kts | 57° |
| 2026-05-08 07:27 | 47.02732 | -62.01871 | 40694 ft | 576 kts | 57° |
| 2026-05-08 07:28 | 47.07334 | -61.92245 | 40684 ft | 576 kts | 57° |
| 2026-05-08 07:28 | 47.11917 | -61.82624 | 40681 ft | 576 kts | 57° |
| 2026-05-08 07:29 | 47.16504 | -61.72963 | 40684 ft | 576 kts | 57° |
| 2026-05-08 07:29 | 47.21075 | -61.63300 | 40675 ft | 576 kts | 57° |
| 2026-05-08 07:30 | 47.25638 | -61.53621 | 40671 ft | 576 kts | 58° |
| 2026-05-08 07:30 | 47.30166 | -61.43982 | 40675 ft | 575 kts | 58° |
| 2026-05-08 07:31 | 47.34712 | -61.34271 | 40674 ft | 575 kts | 58° |
| 2026-05-08 07:31 | 47.39244 | -61.24556 | 40674 ft | 575 kts | 58° |
| 2026-05-08 07:32 | 47.43768 | -61.14824 | 40682 ft | 575 kts | 58° |
| 2026-05-08 07:32 | 47.48294 | -61.05051 | 40681 ft | 575 kts | 58° |
| 2026-05-08 07:33 | 47.52787 | -60.95316 | 40681 ft | 575 kts | 58° |
| 2026-05-08 07:33 | 47.57294 | -60.85517 | 40679 ft | 575 kts | 58° |
| 2026-05-08 07:34 | 47.61785 | -60.75717 | 40681 ft | 575 kts | 58° |
| 2026-05-08 07:34 | 47.66275 | -60.65883 | 40679 ft | 575 kts | 58° |
| 2026-05-08 07:35 | 47.70756 | -60.56038 | 40668 ft | 575 kts | 59° |
| 2026-05-08 07:35 | 47.75223 | -60.46184 | 40676 ft | 574 kts | 59° |
| 2026-05-08 07:36 | 47.79675 | -60.36328 | 40683 ft | 574 kts | 59° |
| 2026-05-08 07:36 | 47.84112 | -60.26469 | 40687 ft | 574 kts | 59° |
| 2026-05-08 07:37 | 47.88552 | -60.16567 | 40677 ft | 575 kts | 59° |
| 2026-05-08 07:37 | 47.92981 | -60.06655 | 40674 ft | 575 kts | 59° |
| 2026-05-08 07:38 | 47.97406 | -59.96718 | 40678 ft | 575 kts | 59° |
| 2026-05-08 07:38 | 48.01825 | -59.86755 | 40678 ft | 575 kts | 59° |
| 2026-05-08 07:39 | 48.06238 | -59.76769 | 40681 ft | 576 kts | 60° |
| 2026-05-08 07:39 | 48.10638 | -59.66777 | 40679 ft | 576 kts | 60° |
| 2026-05-08 07:40 | 48.15034 | -59.56759 | 40672 ft | 575 kts | 60° |
| 2026-05-08 07:40 | 48.19382 | -59.46814 | 40678 ft | 573 kts | 60° |
| 2026-05-08 07:41 | 48.23736 | -59.36816 | 40677 ft | 573 kts | 60° |
| 2026-05-08 07:41 | 48.28076 | -59.26811 | 40686 ft | 573 kts | 60° |
| 2026-05-08 07:42 | 48.32419 | -59.16763 | 40679 ft | 574 kts | 60° |
| 2026-05-08 07:42 | 48.36759 | -59.06686 | 40677 ft | 574 kts | 60° |
| 2026-05-08 07:43 | 48.41093 | -58.96586 | 40676 ft | 574 kts | 60° |
| 2026-05-08 07:43 | 48.45414 | -58.86477 | 40677 ft | 574 kts | 60° |
| 2026-05-08 07:44 | 48.49732 | -58.76340 | 40674 ft | 574 kts | 61° |
| 2026-05-08 07:44 | 48.54035 | -58.66197 | 40672 ft | 574 kts | 61° |
| 2026-05-08 07:45 | 48.58331 | -58.56033 | 40633 ft | 574 kts | 60° |
| 2026-05-08 07:45 | 48.62616 | -58.45856 | 40670 ft | 574 kts | 60° |
| 2026-05-08 07:46 | 48.66894 | -58.35657 | 40658 ft | 574 kts | 60° |
| 2026-05-08 07:46 | 48.71156 | -58.25458 | 40659 ft | 574 kts | 60° |
| 2026-05-08 07:47 | 48.75414 | -58.15228 | 40654 ft | 573 kts | 60° |
| 2026-05-08 07:47 | 48.79658 | -58.04997 | 40647 ft | 573 kts | 60° |
| 2026-05-08 07:48 | 48.83893 | -57.94743 | 40643 ft | 573 kts | 61° |
| 2026-05-08 07:48 | 48.88120 | -57.84473 | 40640 ft | 573 kts | 61° |
| 2026-05-08 07:49 | 48.92307 | -57.74260 | 40633 ft | 573 kts | 61° |
| 2026-05-08 07:49 | 48.96510 | -57.63967 | 40634 ft | 573 kts | 61° |
| 2026-05-08 07:50 | 49.00706 | -57.53651 | 40628 ft | 573 kts | 61° |
| 2026-05-08 07:50 | 49.04891 | -57.43323 | 40622 ft | 573 kts | 61° |
| 2026-05-08 07:51 | 49.09072 | -57.32967 | 40634 ft | 573 kts | 61° |
| 2026-05-08 07:51 | 49.13237 | -57.22608 | 40635 ft | 573 kts | 61° |
| 2026-05-08 07:52 | 49.17393 | -57.12230 | 40614 ft | 573 kts | 61° |
| 2026-05-08 07:52 | 49.21543 | -57.01829 | 40614 ft | 573 kts | 61° |
| 2026-05-08 07:53 | 49.25687 | -56.91401 | 40616 ft | 573 kts | 61° |
| 2026-05-08 07:53 | 49.29822 | -56.80954 | 40615 ft | 573 kts | 61° |
| 2026-05-08 07:54 | 49.33943 | -56.70501 | 40615 ft | 573 kts | 61° |
| 2026-05-08 07:54 | 49.38058 | -56.60022 | 40614 ft | 573 kts | 61° |
| 2026-05-08 07:55 | 49.42165 | -56.49523 | 40616 ft | 573 kts | 61° |
| 2026-05-08 07:55 | 49.46260 | -56.39011 | 40617 ft | 573 kts | 61° |
| 2026-05-08 07:56 | 49.50343 | -56.28489 | 40617 ft | 573 kts | 61° |
| 2026-05-08 07:56 | 49.54416 | -56.17951 | 40619 ft | 573 kts | 61° |
| 2026-05-08 07:57 | 49.58481 | -56.07391 | 40620 ft | 573 kts | 61° |
| 2026-05-08 07:57 | 49.62532 | -55.96821 | 40629 ft | 573 kts | 61° |
| 2026-05-08 07:58 | 49.66580 | -55.86221 | 40625 ft | 573 kts | 62° |
| 2026-05-08 07:58 | 49.70610 | -55.75623 | 40628 ft | 573 kts | 62° |
| 2026-05-08 07:59 | 49.74632 | -55.65002 | 40631 ft | 573 kts | 62° |
| 2026-05-08 07:59 | 49.78652 | -55.54346 | 40634 ft | 573 kts | 62° |
| 2026-05-08 08:00 | 49.81982 | -55.45485 | 40639 ft | 573 kts | 62° |
| 2026-05-08 08:00 | 49.85979 | -55.34809 | 40642 ft | 573 kts | 62° |
| 2026-05-08 08:01 | 49.90617 | -55.22362 | 40632 ft | 572 kts | 61° |
| 2026-05-08 08:01 | 49.93939 | -55.13413 | 40644 ft | 571 kts | 62° |
| 2026-05-08 08:02 | 49.97865 | -55.02797 | 40645 ft | 570 kts | 62° |
| 2026-05-08 08:02 | 50.01806 | -54.92094 | 40654 ft | 570 kts | 62° |
| 2026-05-08 08:03 | 50.05733 | -54.81387 | 40659 ft | 570 kts | 62° |
| 2026-05-08 08:03 | 50.09646 | -54.70672 | 40673 ft | 570 kts | 62° |
| 2026-05-08 08:04 | 50.13554 | -54.59928 | 40679 ft | 570 kts | 62° |
| 2026-05-08 08:04 | 50.17449 | -54.49173 | 40676 ft | 569 kts | 62° |
| 2026-05-08 08:05 | 50.21323 | -54.38431 | 40680 ft | 568 kts | 62° |
| 2026-05-08 08:05 | 50.25193 | -54.27656 | 40689 ft | 568 kts | 62° |
| 2026-05-08 08:06 | 50.29049 | -54.16877 | 40693 ft | 568 kts | 62° |
| 2026-05-08 08:06 | 50.32891 | -54.06088 | 40663 ft | 568 kts | 62° |
| 2026-05-08 08:07 | 50.36728 | -53.95272 | 40692 ft | 567 kts | 62° |
| 2026-05-08 08:07 | 50.40542 | -53.84471 | 40695 ft | 566 kts | 62° |
| 2026-05-08 08:08 | 50.44343 | -53.73661 | 40705 ft | 566 kts | 62° |
| 2026-05-08 08:08 | 50.48137 | -53.62825 | 40708 ft | 566 kts | 62° |
| 2026-05-08 08:09 | 50.51918 | -53.51984 | 40711 ft | 566 kts | 62° |
| 2026-05-08 08:09 | 50.55689 | -53.41124 | 40716 ft | 566 kts | 62° |
| 2026-05-08 08:10 | 50.59448 | -53.30250 | 40729 ft | 566 kts | 62° |
| 2026-05-08 08:10 | 50.63193 | -53.19370 | 40730 ft | 565 kts | 62° |
| 2026-05-08 08:11 | 50.66932 | -53.08463 | 40735 ft | 565 kts | 62° |
| 2026-05-08 08:11 | 50.70658 | -52.97547 | 40730 ft | 565 kts | 62° |
| 2026-05-08 08:12 | 50.74372 | -52.86615 | 40722 ft | 564 kts | 62° |
| 2026-05-08 08:12 | 50.78064 | -52.75704 | 40760 ft | 562 kts | 62° |
| 2026-05-08 08:13 | 50.81739 | -52.64796 | 40649 ft | 562 kts | 62° |
| 2026-05-08 08:13 | 50.83570 | -52.59341 | 40412 ft | 562 kts | 62° |
| 2026-05-08 08:13 | 50.85306 | -52.53788 | 40149 ft | 564 kts | 66° |
| 2026-05-08 08:13 | 50.86866 | -52.48089 | 39913 ft | 565 kts | 68° |
| 2026-05-08 08:14 | 50.88331 | -52.42384 | 39776 ft | 567 kts | 69° |
| 2026-05-08 08:14 | 50.91287 | -52.30766 | 39774 ft | 569 kts | 68° |
| 2026-05-08 08:15 | 50.94320 | -52.19170 | 39771 ft | 569 kts | 68° |
| 2026-05-08 08:15 | 50.97394 | -52.07592 | 39775 ft | 569 kts | 67° |
| 2026-05-08 08:16 | 51.00460 | -51.96037 | 39782 ft | 567 kts | 68° |
| 2026-05-08 08:16 | 51.03509 | -51.84472 | 39788 ft | 567 kts | 68° |
| 2026-05-08 08:17 | 51.06540 | -51.72904 | 39788 ft | 567 kts | 67° |
| 2026-05-08 08:17 | 51.09554 | -51.61330 | 39792 ft | 566 kts | 67° |
| 2026-05-08 08:18 | 51.12550 | -51.49775 | 39805 ft | 565 kts | 67° |
| 2026-05-08 08:18 | 51.15535 | -51.38204 | 39813 ft | 565 kts | 67° |
| 2026-05-08 08:19 | 51.18510 | -51.26612 | 39815 ft | 565 kts | 67° |
| 2026-05-08 08:19 | 51.21472 | -51.15006 | 39830 ft | 564 kts | 67° |
| 2026-05-08 08:20 | 51.24413 | -51.03427 | 39831 ft | 563 kts | 67° |
| 2026-05-08 08:20 | 51.27341 | -50.91839 | 39834 ft | 563 kts | 68° |
| 2026-05-08 08:21 | 51.30258 | -50.80237 | 39841 ft | 563 kts | 68° |
| 2026-05-08 08:21 | 51.33142 | -50.68697 | 39847 ft | 561 kts | 67° |
| 2026-05-08 08:22 | 51.36020 | -50.57127 | 39861 ft | 558 kts | 67° |
| 2026-05-08 08:22 | 51.38874 | -50.45596 | 39862 ft | 558 kts | 67° |
| 2026-05-08 08:23 | 51.41721 | -50.34033 | 39862 ft | 558 kts | 67° |
| 2026-05-08 08:23 | 51.44553 | -50.22469 | 39881 ft | 558 kts | 67° |
| 2026-05-08 08:24 | 51.47379 | -50.10869 | 39880 ft | 558 kts | 67° |
| 2026-05-08 08:24 | 51.50190 | -49.99271 | 39885 ft | 558 kts | 67° |
| 2026-05-08 08:25 | 51.53066 | -49.87693 | 39910 ft | 558 kts | 66° |
| 2026-05-08 08:25 | 51.55990 | -49.76156 | 39905 ft | 558 kts | 66° |
| 2026-05-08 08:26 | 51.58897 | -49.64591 | 39894 ft | 558 kts | 66° |
| 2026-05-08 08:26 | 51.61775 | -49.53024 | 39915 ft | 556 kts | 66° |
| 2026-05-08 08:27 | 51.64629 | -49.41463 | 39924 ft | 556 kts | 66° |
| 2026-05-08 08:27 | 51.67472 | -49.29885 | 39939 ft | 555 kts | 66° |
| 2026-05-08 08:28 | 51.70300 | -49.18314 | 39933 ft | 554 kts | 66° |
| 2026-05-08 08:28 | 51.73115 | -49.06741 | 39942 ft | 554 kts | 66° |
| 2026-05-08 08:29 | 51.75918 | -48.95153 | 39965 ft | 554 kts | 66° |
| 2026-05-08 08:29 | 51.78709 | -48.83551 | 39969 ft | 554 kts | 66° |
| 2026-05-08 08:30 | 51.81485 | -48.71947 | 39970 ft | 553 kts | 66° |
| 2026-05-08 08:30 | 51.85611 | -48.54591 | 39981 ft | 553 kts | 66° |
| 2026-05-08 08:31 | 51.88354 | -48.42974 | 39998 ft | 552 kts | 66° |
| 2026-05-08 08:31 | 51.91075 | -48.31382 | 40003 ft | 549 kts | 65° |
| 2026-05-08 08:32 | 51.93772 | -48.19837 | 40012 ft | 547 kts | 66° |
| 2026-05-08 08:32 | 51.96455 | -48.08294 | 40013 ft | 547 kts | 66° |
| 2026-05-08 08:33 | 51.99124 | -47.96748 | 40032 ft | 547 kts | 66° |
| 2026-05-08 08:33 | 52.01782 | -47.85181 | 40030 ft | 546 kts | 66° |
| 2026-05-08 08:34 | 52.04420 | -47.73641 | 40042 ft | 545 kts | 66° |
| 2026-05-08 08:34 | 52.07048 | -47.62080 | 40048 ft | 545 kts | 66° |
| 2026-05-08 08:35 | 52.09663 | -47.50516 | 40061 ft | 545 kts | 66° |
| 2026-05-08 08:35 | 52.12271 | -47.38918 | 40067 ft | 545 kts | 66° |
| 2026-05-08 08:36 | 52.14851 | -47.27370 | 40069 ft | 541 kts | 66° |
| 2026-05-08 08:36 | 52.17403 | -47.15893 | 40075 ft | 538 kts | 66° |
| 2026-05-08 08:37 | 52.19944 | -47.04410 | 40094 ft | 538 kts | 66° |
| 2026-05-08 08:37 | 52.22456 | -46.92991 | 40099 ft | 538 kts | 66° |
| 2026-05-08 08:38 | 52.24977 | -46.81459 | 40099 ft | 536 kts | 66° |
| 2026-05-08 08:38 | 52.27490 | -46.69917 | 40101 ft | 544 kts | 66° |
| 2026-05-08 08:39 | 52.30008 | -46.58288 | 40114 ft | 549 kts | 66° |
| 2026-05-08 08:39 | 52.32544 | -46.46488 | 40131 ft | 551 kts | 66° |
| 2026-05-08 08:40 | 52.35074 | -46.34647 | 40121 ft | 551 kts | 66° |
| 2026-05-08 08:40 | 52.37593 | -46.22789 | 40129 ft | 552 kts | 66° |
| 2026-05-08 08:41 | 52.40094 | -46.10943 | 40135 ft | 549 kts | 66° |
| 2026-05-08 08:41 | 52.42575 | -45.99125 | 40143 ft | 548 kts | 66° |
| 2026-05-08 08:42 | 52.45039 | -45.87324 | 40152 ft | 547 kts | 66° |
| 2026-05-08 08:42 | 52.47492 | -45.75513 | 40146 ft | 547 kts | 66° |
| 2026-05-08 08:43 | 52.49932 | -45.63696 | 40158 ft | 547 kts | 66° |
| 2026-05-08 08:43 | 52.52343 | -45.51946 | 40156 ft | 547 kts | 66° |
| 2026-05-08 08:44 | 52.54773 | -45.40028 | 40162 ft | 547 kts | 66° |
| 2026-05-08 08:44 | 52.57155 | -45.28278 | 40162 ft | 541 kts | 67° |
| 2026-05-08 08:45 | 52.59486 | -45.16685 | 40172 ft | 530 kts | 67° |
| 2026-05-08 08:45 | 52.61791 | -45.05186 | 40178 ft | 528 kts | 67° |
| 2026-05-08 08:46 | 52.64083 | -44.93696 | 40178 ft | 529 kts | 67° |
| 2026-05-08 08:46 | 52.66363 | -44.82186 | 40181 ft | 529 kts | 67° |
| 2026-05-08 08:47 | 52.68631 | -44.70662 | 40189 ft | 529 kts | 67° |
| 2026-05-08 08:47 | 52.70890 | -44.59114 | 40189 ft | 529 kts | 67° |
| 2026-05-08 08:48 | 52.73134 | -44.47573 | 40201 ft | 529 kts | 67° |
| 2026-05-08 08:48 | 52.75369 | -44.36009 | 40194 ft | 529 kts | 67° |
| 2026-05-08 08:49 | 52.77220 | -44.26378 | 40203 ft | 529 kts | 67° |
| 2026-05-08 08:49 | 52.79435 | -44.14788 | 40202 ft | 529 kts | 67° |
| 2026-05-08 08:50 | 52.81642 | -44.03174 | 40209 ft | 529 kts | 67° |
| 2026-05-08 08:50 | 52.83832 | -43.91572 | 40211 ft | 529 kts | 67° |
| 2026-05-08 08:51 | 52.86015 | -43.79936 | 40209 ft | 529 kts | 68° |
| 2026-05-08 08:51 | 52.88177 | -43.68336 | 40213 ft | 526 kts | 68° |
| 2026-05-08 08:52 | 52.90317 | -43.56781 | 40210 ft | 525 kts | 68° |
| 2026-05-08 08:52 | 52.92448 | -43.45219 | 40224 ft | 525 kts | 67° |
| 2026-05-08 08:53 | 52.94566 | -43.33646 | 40215 ft | 525 kts | 67° |
| 2026-05-08 08:53 | 52.96677 | -43.22042 | 40223 ft | 526 kts | 67° |
| 2026-05-08 08:54 | 52.98764 | -43.10493 | 40223 ft | 526 kts | 67° |
| 2026-05-08 08:54 | 53.00850 | -42.98871 | 40225 ft | 526 kts | 67° |
| 2026-05-08 08:55 | 53.02930 | -42.87217 | 40234 ft | 527 kts | 68° |
| 2026-05-08 08:55 | 53.05000 | -42.75543 | 40246 ft | 527 kts | 68° |
| 2026-05-08 08:56 | 53.07059 | -42.63851 | 40240 ft | 527 kts | 68° |
| 2026-05-08 08:56 | 53.09108 | -42.52137 | 40231 ft | 527 kts | 69° |
| 2026-05-08 08:57 | 53.11138 | -42.40455 | 40249 ft | 524 kts | 69° |
| 2026-05-08 08:57 | 53.13151 | -42.28801 | 40248 ft | 523 kts | 69° |
| 2026-05-08 08:58 | 53.15149 | -42.17161 | 40262 ft | 523 kts | 70° |
| 2026-05-08 08:58 | 53.17134 | -42.05512 | 40260 ft | 523 kts | 70° |
| 2026-05-08 08:59 | 53.19109 | -41.93850 | 40260 ft | 523 kts | 70° |
| 2026-05-08 08:59 | 53.21074 | -41.82164 | 40268 ft | 523 kts | 70° |
| 2026-05-08 09:00 | 53.23023 | -41.70488 | 40279 ft | 523 kts | 70° |
| 2026-05-08 09:00 | 53.24965 | -41.58782 | 40287 ft | 523 kts | 70° |
| 2026-05-08 09:01 | 53.26894 | -41.47077 | 40285 ft | 523 kts | 70° |
| 2026-05-08 09:01 | 53.28812 | -41.35358 | 40296 ft | 522 kts | 71° |
| 2026-05-08 09:02 | 53.30707 | -41.23687 | 40295 ft | 518 kts | 71° |
| 2026-05-08 09:02 | 53.32574 | -41.12113 | 40297 ft | 514 kts | 71° |
| 2026-05-08 09:03 | 53.34425 | -41.00573 | 40298 ft | 513 kts | 71° |
| 2026-05-08 09:03 | 53.36265 | -40.89021 | 40303 ft | 514 kts | 71° |
| 2026-05-08 09:04 | 53.38076 | -40.77562 | 40305 ft | 510 kts | 71° |
| 2026-05-08 09:04 | 53.39876 | -40.66092 | 40315 ft | 508 kts | 71° |
| 2026-05-08 09:05 | 53.41663 | -40.54632 | 40317 ft | 508 kts | 71° |
| 2026-05-08 09:05 | 53.43440 | -40.43164 | 40317 ft | 509 kts | 71° |
| 2026-05-08 09:06 | 53.45207 | -40.31670 | 40333 ft | 508 kts | 71° |
| 2026-05-08 09:06 | 53.46956 | -40.20207 | 40330 ft | 506 kts | 71° |
| 2026-05-08 09:07 | 53.48691 | -40.08762 | 40333 ft | 506 kts | 71° |
| 2026-05-08 09:07 | 53.50417 | -39.97294 | 40334 ft | 506 kts | 71° |
| 2026-05-08 09:08 | 53.52078 | -39.85830 | 40336 ft | 505 kts | 72° |
| 2026-05-08 09:08 | 53.53703 | -39.74349 | 40347 ft | 505 kts | 72° |
| 2026-05-08 09:09 | 53.55324 | -39.62862 | 40349 ft | 505 kts | 72° |
| 2026-05-08 09:09 | 53.56940 | -39.51368 | 40349 ft | 505 kts | 72° |
| 2026-05-08 09:10 | 53.58550 | -39.39855 | 40349 ft | 505 kts | 72° |
| 2026-05-08 09:10 | 53.60146 | -39.28350 | 40364 ft | 505 kts | 72° |
| 2026-05-08 09:11 | 53.61731 | -39.16829 | 40358 ft | 504 kts | 72° |
| 2026-05-08 09:11 | 53.63302 | -39.05318 | 40365 ft | 504 kts | 72° |
| 2026-05-08 09:12 | 53.64861 | -38.93811 | 40360 ft | 504 kts | 73° |
| 2026-05-08 09:12 | 53.66410 | -38.82286 | 40366 ft | 504 kts | 73° |
| 2026-05-08 09:13 | 53.67948 | -38.70759 | 40389 ft | 504 kts | 73° |
| 2026-05-08 09:13 | 53.69473 | -38.59225 | 40378 ft | 503 kts | 73° |
| 2026-05-08 09:14 | 53.70988 | -38.47688 | 40375 ft | 503 kts | 73° |
| 2026-05-08 09:14 | 53.72491 | -38.36139 | 40384 ft | 503 kts | 73° |
| 2026-05-08 09:15 | 53.73973 | -38.24664 | 40388 ft | 503 kts | 73° |
| 2026-05-08 09:15 | 53.75454 | -38.13106 | 40393 ft | 502 kts | 73° |
| 2026-05-08 09:16 | 53.76914 | -38.01596 | 40393 ft | 500 kts | 73° |
| 2026-05-08 09:16 | 53.78363 | -37.90102 | 40400 ft | 500 kts | 73° |
| 2026-05-08 09:17 | 53.79799 | -37.78616 | 40401 ft | 500 kts | 74° |
| 2026-05-08 09:17 | 53.81226 | -37.67100 | 40405 ft | 500 kts | 74° |
| 2026-05-08 09:18 | 53.82639 | -37.55599 | 40407 ft | 499 kts | 74° |
| 2026-05-08 09:18 | 53.84039 | -37.44105 | 40413 ft | 498 kts | 74° |
| 2026-05-08 09:19 | 53.85428 | -37.32607 | 40408 ft | 498 kts | 74° |
| 2026-05-08 09:19 | 53.86804 | -37.21121 | 40416 ft | 498 kts | 74° |
| 2026-05-08 09:20 | 53.88171 | -37.09608 | 40416 ft | 498 kts | 74° |